Clipper Saga — LAFY6 — position and weather

sailwx.info

Track history (hours):
 
Tides and Currents Weather Stations Pressure Air Temp Water Temp Dewpoint Dewpoint Depression Visibility Wind Speed Wind Dir Waves Ship Positions

Clipper Saga

Last reported at 2015-Feb-27 07:16 UTC. Time now 2015-Feb-27 21:12 UTC.
Position N 59°19' E 005°00'.

Length 89 m; draft 5.9 m.

Type: Ship (hazmat cat C). MMSI: 246657008.

Date/timePositionNaut miles runAvg speedWind from/ knotsBaromVisibWave heightAir tempDewpointWater temp
2015-Feb-27 07:16N 59°19' E 005°00'811.0
2015-Feb-27 06:32N 59°11' E 004°58'9 8.9
2015-Feb-27 05:33N 59°04' E 005°07'9 8.7
2015-Feb-27 04:33N 59°06' E 005°23'8 8.2
2015-Feb-27 03:33N 58°60' E 005°33'4 4.1
2015-Feb-27 02:33N 58°56' E 005°36'0 0.0
2015-Feb-27 01:31N 58°56' E 005°36'0 0.0
2015-Feb-27 00:31N 58°56' E 005°36'0 0.0
2015-Feb-26 23:31N 58°56' E 005°36'0 0.0
2015-Feb-26 20:19N 58°56' E 005°36'0 0.2
2015-Feb-26 19:34N 58°56' E 005°35'2 1.6
2015-Feb-26 18:34N 58°57' E 005°33'1110.5
2015-Feb-26 17:33N 59°07' E 005°27'9 8.8
2015-Feb-26 16:32N 59°15' E 005°20'9 9.5
2015-Feb-26 15:34N 59°24' E 005°16'0 0.0
2015-Feb-26 14:31N 59°24' E 005°16'0 0.0
2015-Feb-26 13:31N 59°24' E 005°16'0 0.0
2015-Feb-26 12:31N 59°24' E 005°16'0 0.0
2015-Feb-26 11:31N 59°24' E 005°16'0 0.0
2015-Feb-26 10:31N 59°24' E 005°16'0 0.0
2015-Feb-26 09:31N 59°24' E 005°16'0 0.0
2015-Feb-26 08:31N 59°24' E 005°16'7 6.6
2015-Feb-26 07:30N 59°18' E 005°20'1111.5
2015-Feb-26 06:33N 59°07' E 005°21'10 9.7
2015-Feb-26 05:33N 58°60' E 005°08'8 8.4
2015-Feb-26 04:33N 58°52' E 005°01'178 6.3
2015-Feb-25 00:20N 57°53' E 010°21'7 9.6
2015-Feb-24 23:33N 57°52' E 010°35'1111.4
2015-Feb-24 22:34N 57°46' E 010°53'1211.8
2015-Feb-24 21:33N 57°40' E 011°12'1111.4
2015-Feb-24 20:33N 57°39' E 011°33'8 8.3
2015-Feb-24 19:33N 57°40' E 011°48'0 0.0
2015-Feb-24 18:33N 57°40' E 011°48'9 8.7
2015-Feb-24 17:33N 57°34' E 011°37'9 8.6
2015-Feb-24 16:33N 57°26' E 011°29'9 9.2
2015-Feb-24 15:33N 57°18' E 011°34'9 9.2
2015-Feb-24 14:33N 57°09' E 011°40'10 9.7
2015-Feb-24 13:33N 56°60' E 011°46'1010.0
2015-Feb-24 12:33N 56°50' E 011°52'1111.2
2015-Feb-24 11:34N 56°39' E 011°57'1212.4
2015-Feb-24 10:33N 56°27' E 012°02'1111.4
2015-Feb-24 09:33N 56°17' E 012°09'1212.4
2015-Feb-24 08:33N 56°09' E 012°27'1111.5
2015-Feb-24 07:33N 56°01' E 012°41'1312.5
2015-Feb-24 06:33N 55°49' E 012°47'1212.3
2015-Feb-24 05:33N 55°39' E 012°60'1 1.2
2015-Feb-24 04:32N 55°38' E 013°01'0 0.0
2015-Feb-24 03:32N 55°38' E 013°01'0 0.0
2015-Feb-24 02:32N 55°38' E 013°01'0 0.0
2015-Feb-24 01:32N 55°38' E 013°01'0 0.0
2015-Feb-24 00:32N 55°38' E 013°01'0 0.0
2015-Feb-23 23:32N 55°38' E 013°01'0 0.0
2015-Feb-23 22:29N 55°38' E 013°01'0 0.0
2015-Feb-23 21:32N 55°38' E 013°01'2 2.2
2015-Feb-23 20:33N 55°40' E 012°59'3 2.5
2015-Feb-23 19:31N 55°42' E 012°56'0 0.0
2015-Feb-23 18:31N 55°42' E 012°56'0 0.0
2015-Feb-23 17:31N 55°42' E 012°56'0 0.0
2015-Feb-23 16:31N 55°42' E 012°56'0 0.4
2015-Feb-23 15:33N 55°42' E 012°56'10 9.6
2015-Feb-23 14:33N 55°48' E 012°43'1010.2
2015-Feb-23 13:33N 55°58' E 012°40'9 8.9
2015-Feb-23 12:33N 56°06' E 012°33'1010.0
2015-Feb-23 11:33N 56°12' E 012°18'10 9.9
2015-Feb-23 10:33N 56°18' E 012°04'11 9.3
2015-Feb-23 09:19N 56°29' E 011°59'6 7.8
2015-Feb-23 08:33N 56°35' E 011°57'8 8.1
2015-Feb-23 07:33N 56°43' E 011°54'9 9.3
2015-Feb-23 06:33N 56°52' E 011°49'10 9.5
2015-Feb-23 05:32N 57°01' E 011°43'9 9.4
2015-Feb-23 04:33N 57°09' E 011°37'1010.1
2015-Feb-23 03:33N 57°19' E 011°30'10 9.9
2015-Feb-23 02:33N 57°28' E 011°24'1010.4
2015-Feb-23 01:33N 57°35' E 011°10'1110.7
2015-Feb-23 00:33N 57°42' E 010°54'1110.7
2015-Feb-22 23:33N 57°49' E 010°39'38711.9
2015-Feb-21 15:11N 54°45' E 000°27'711.4
2015-Feb-21 14:33N 54°41' E 000°16'1111.3
2015-Feb-21 13:33N 54°39' W 000°03'6 6.3
2015-Feb-21 12:33N 54°33' W 000°08'1211.6
2015-Feb-21 11:33N 54°23' E 000°03'1212.0
2015-Feb-21 10:33N 54°13' E 000°14'1211.6
2015-Feb-21 09:33N 54°03' E 000°24'1110.7
2015-Feb-21 08:33N 53°54' E 000°34'10 9.6
2015-Feb-21 07:33N 53°45' E 000°42'37 9.2
2015-Feb-21 03:33N 53°14' E 001°15'1313.1
2015-Feb-21 02:33N 53°03' E 001°27'1413.7
2015-Feb-21 01:33N 52°53' E 001°42'1212.2
2015-Feb-21 00:33N 52°46' E 001°58'1310.6
2015-Feb-20 23:20N 52°39' E 002°16'55 9.6
2015-Feb-20 17:33N 52°09' E 003°33'1 0.1
2015-Feb-20 10:19N 52°09' E 003°32'1012.2
2015-Feb-20 09:33N 52°05' E 003°46'1110.8
2015-Feb-20 08:34N 51°60' E 004°02'1211.5
2015-Feb-20 07:33N 51°53' E 004°17'0 0.3
2015-Feb-20 06:29N 51°53' E 004°17'0 0.0
2015-Feb-20 05:32N 51°53' E 004°17'0 0.0
2015-Feb-20 04:29N 51°53' E 004°17'0 0.0
2015-Feb-20 03:32N 51°53' E 004°17'0 0.0
2015-Feb-20 02:32N 51°53' E 004°17'0 0.0
2015-Feb-20 01:29N 51°53' E 004°17'0 0.0
2015-Feb-20 00:32N 51°53' E 004°17'0 0.0
2015-Feb-19 23:26N 51°53' E 004°17'0 0.0
2015-Feb-19 22:32N 51°53' E 004°17'0 0.0
2015-Feb-19 21:26N 51°53' E 004°17'0 0.0
2015-Feb-19 20:29N 51°53' E 004°17'0 0.0
2015-Feb-19 19:14N 51°53' E 004°17'0 0.0
2015-Feb-19 18:32N 51°53' E 004°17'0 0.0
2015-Feb-19 17:32N 51°53' E 004°17'0 0.0
2015-Feb-19 16:26N 51°53' E 004°17'0 0.0
2015-Feb-19 15:32N 51°53' E 004°17'0 0.0
2015-Feb-19 14:14N 51°53' E 004°17'0 0.0
2015-Feb-19 13:32N 51°53' E 004°17'0 0.0
2015-Feb-19 12:32N 51°53' E 004°17'0 0.0
2015-Feb-19 11:23N 51°53' E 004°17'0 0.0
2015-Feb-19 10:14N 51°53' E 004°17'0 0.0
2015-Feb-19 09:26N 51°53' E 004°17'0 0.0
2015-Feb-19 08:32N 51°53' E 004°17'0 0.0
2015-Feb-19 07:29N 51°53' E 004°17'0 0.0
2015-Feb-19 06:29N 51°53' E 004°17'0 0.0
2015-Feb-19 05:32N 51°53' E 004°17'0 0.0
2015-Feb-19 04:32N 51°53' E 004°17'0 0.0
2015-Feb-19 03:32N 51°53' E 004°17'0 0.0
2015-Feb-19 02:26N 51°53' E 004°17'0 0.0
2015-Feb-19 01:32N 51°53' E 004°17'0 0.0
2015-Feb-19 00:32N 51°53' E 004°17'0 0.0
2015-Feb-18 23:32N 51°53' E 004°17'0 0.0
2015-Feb-18 22:30N 51°53' E 004°17'3 2.7
2015-Feb-18 21:33N 51°55' E 004°14'9 9.0
2015-Feb-18 20:33N 51°60' E 004°02'1010.1
2015-Feb-18 19:33N 52°01' E 003°45'8 8.4
2015-Feb-18 18:33N 52°06' E 003°34'6510.4
2015-Feb-18 12:17N 52°43' E 002°07'7 9.9
2015-Feb-18 11:33N 52°47' E 001°57'1110.7
2015-Feb-18 10:33N 52°52' E 001°41'1010.3
2015-Feb-18 09:33N 52°60' E 001°29'1110.5
2015-Feb-18 08:33N 53°09' E 001°21'4012.0
2015-Feb-18 05:13N 53°43' E 000°45'913.0
2015-Feb-18 04:33N 53°50' E 000°36'1212.1
2015-Feb-18 03:33N 54°00' E 000°25'1312.5
2015-Feb-18 02:33N 54°11' E 000°13'1212.3
2015-Feb-18 01:33N 54°21' E 000°03'1211.8
2015-Feb-18 00:33N 54°31' W 000°08'1211.5
2015-Feb-17 23:33N 54°41' W 000°18'1111.0
2015-Feb-17 22:33N 54°51' W 000°28'1110.6
2015-Feb-17 21:33N 54°60' W 000°37'6410.7
2015-Feb-17 15:31N 55°50' W 001°48'1212.6
2015-Feb-17 14:33N 55°57' W 002°06'1312.5
2015-Feb-17 13:33N 56°02' W 002°26'1211.8
2015-Feb-17 12:33N 56°06' W 002°46'1111.3
2015-Feb-17 11:33N 56°03' W 003°06'1110.7
2015-Feb-17 10:33N 56°00' W 003°24'10 6.8
2015-Feb-17 09:08N 56°02' W 003°41'  
Track history (hours):
 
Tides and Currents Weather Stations Pressure Air Temp Water Temp Dewpoint Dewpoint Depression Visibility Wind Speed Wind Dir Waves Ship Positions

Clipper Saga

Last reported at 2015-Feb-27 07:16 UTC. Time now 2015-Feb-27 21:12 UTC.
Position N 59°19' E 005°00'.

Length 89 m; draft 5.9 m.

Type: Ship (hazmat cat C). MMSI: 246657008.

Date/timePositionNaut miles runAvg speedWind from/ knotsBaromVisibWave heightAir tempDewpointWater temp
2015-Feb-27 07:16N 59°19' E 005°00'811.0
2015-Feb-27 06:32N 59°11' E 004°58'9 8.9
2015-Feb-27 05:33N 59°04' E 005°07'9 8.7
2015-Feb-27 04:33N 59°06' E 005°23'8 8.2
2015-Feb-27 03:33N 58°60' E 005°33'4 4.1
2015-Feb-27 02:33N 58°56' E 005°36'0 0.0
2015-Feb-27 01:31N 58°56' E 005°36'0 0.0
2015-Feb-27 00:31N 58°56' E 005°36'0 0.0
2015-Feb-26 23:31N 58°56' E 005°36'0 0.0
2015-Feb-26 20:19N 58°56' E 005°36'0 0.2
2015-Feb-26 19:34N 58°56' E 005°35'2 1.6
2015-Feb-26 18:34N 58°57' E 005°33'1110.5
2015-Feb-26 17:33N 59°07' E 005°27'9 8.8
2015-Feb-26 16:32N 59°15' E 005°20'9 9.5
2015-Feb-26 15:34N 59°24' E 005°16'0 0.0
2015-Feb-26 14:31N 59°24' E 005°16'0 0.0
2015-Feb-26 13:31N 59°24' E 005°16'0 0.0
2015-Feb-26 12:31N 59°24' E 005°16'0 0.0
2015-Feb-26 11:31N 59°24' E 005°16'0 0.0
2015-Feb-26 10:31N 59°24' E 005°16'0 0.0
2015-Feb-26 09:31N 59°24' E 005°16'0 0.0
2015-Feb-26 08:31N 59°24' E 005°16'7 6.6
2015-Feb-26 07:30N 59°18' E 005°20'1111.5
2015-Feb-26 06:33N 59°07' E 005°21'10 9.7
2015-Feb-26 05:33N 58°60' E 005°08'8 8.4
2015-Feb-26 04:33N 58°52' E 005°01'178 6.3
2015-Feb-25 00:20N 57°53' E 010°21'7 9.6
2015-Feb-24 23:33N 57°52' E 010°35'1111.4
2015-Feb-24 22:34N 57°46' E 010°53'1211.8
2015-Feb-24 21:33N 57°40' E 011°12'1111.4
2015-Feb-24 20:33N 57°39' E 011°33'8 8.3
2015-Feb-24 19:33N 57°40' E 011°48'0 0.0
2015-Feb-24 18:33N 57°40' E 011°48'9 8.7
2015-Feb-24 17:33N 57°34' E 011°37'9 8.6
2015-Feb-24 16:33N 57°26' E 011°29'9 9.2
2015-Feb-24 15:33N 57°18' E 011°34'9 9.2
2015-Feb-24 14:33N 57°09' E 011°40'10 9.7
2015-Feb-24 13:33N 56°60' E 011°46'1010.0
2015-Feb-24 12:33N 56°50' E 011°52'1111.2
2015-Feb-24 11:34N 56°39' E 011°57'1212.4
2015-Feb-24 10:33N 56°27' E 012°02'1111.4
2015-Feb-24 09:33N 56°17' E 012°09'1212.4
2015-Feb-24 08:33N 56°09' E 012°27'1111.5
2015-Feb-24 07:33N 56°01' E 012°41'1312.5
2015-Feb-24 06:33N 55°49' E 012°47'1212.3
2015-Feb-24 05:33N 55°39' E 012°60'1 1.2
2015-Feb-24 04:32N 55°38' E 013°01'0 0.0
2015-Feb-24 03:32N 55°38' E 013°01'0 0.0
2015-Feb-24 02:32N 55°38' E 013°01'0 0.0
2015-Feb-24 01:32N 55°38' E 013°01'0 0.0
2015-Feb-24 00:32N 55°38' E 013°01'0 0.0
2015-Feb-23 23:32N 55°38' E 013°01'0 0.0
2015-Feb-23 22:29N 55°38' E 013°01'0 0.0
2015-Feb-23 21:32N 55°38' E 013°01'2 2.2
2015-Feb-23 20:33N 55°40' E 012°59'3 2.5
2015-Feb-23 19:31N 55°42' E 012°56'0 0.0
2015-Feb-23 18:31N 55°42' E 012°56'0 0.0
2015-Feb-23 17:31N 55°42' E 012°56'0 0.0
2015-Feb-23 16:31N 55°42' E 012°56'0 0.4
2015-Feb-23 15:33N 55°42' E 012°56'10 9.6
2015-Feb-23 14:33N 55°48' E 012°43'1010.2
2015-Feb-23 13:33N 55°58' E 012°40'9 8.9
2015-Feb-23 12:33N 56°06' E 012°33'1010.0
2015-Feb-23 11:33N 56°12' E 012°18'10 9.9
2015-Feb-23 10:33N 56°18' E 012°04'11 9.3
2015-Feb-23 09:19N 56°29' E 011°59'6 7.8
2015-Feb-23 08:33N 56°35' E 011°57'8 8.1
2015-Feb-23 07:33N 56°43' E 011°54'9 9.3
2015-Feb-23 06:33N 56°52' E 011°49'10 9.5
2015-Feb-23 05:32N 57°01' E 011°43'9 9.4
2015-Feb-23 04:33N 57°09' E 011°37'1010.1
2015-Feb-23 03:33N 57°19' E 011°30'10 9.9
2015-Feb-23 02:33N 57°28' E 011°24'1010.4
2015-Feb-23 01:33N 57°35' E 011°10'1110.7
2015-Feb-23 00:33N 57°42' E 010°54'1110.7
2015-Feb-22 23:33N 57°49' E 010°39'38711.9
2015-Feb-21 15:11N 54°45' E 000°27'711.4
2015-Feb-21 14:33N 54°41' E 000°16'1111.3
2015-Feb-21 13:33N 54°39' W 000°03'6 6.3
2015-Feb-21 12:33N 54°33' W 000°08'1211.6
2015-Feb-21 11:33N 54°23' E 000°03'1212.0
2015-Feb-21 10:33N 54°13' E 000°14'1211.6
2015-Feb-21 09:33N 54°03' E 000°24'1110.7
2015-Feb-21 08:33N 53°54' E 000°34'10 9.6
2015-Feb-21 07:33N 53°45' E 000°42'37 9.2
2015-Feb-21 03:33N 53°14' E 001°15'1313.1
2015-Feb-21 02:33N 53°03' E 001°27'1413.7
2015-Feb-21 01:33N 52°53' E 001°42'1212.2
2015-Feb-21 00:33N 52°46' E 001°58'1310.6
2015-Feb-20 23:20N 52°39' E 002°16'55 9.6
2015-Feb-20 17:33N 52°09' E 003°33'1 0.1
2015-Feb-20 10:19N 52°09' E 003°32'1012.2
2015-Feb-20 09:33N 52°05' E 003°46'1110.8
2015-Feb-20 08:34N 51°60' E 004°02'1211.5
2015-Feb-20 07:33N 51°53' E 004°17'0 0.3
2015-Feb-20 06:29N 51°53' E 004°17'0 0.0
2015-Feb-20 05:32N 51°53' E 004°17'0 0.0
2015-Feb-20 04:29N 51°53' E 004°17'0 0.0
2015-Feb-20 03:32N 51°53' E 004°17'0 0.0
2015-Feb-20 02:32N 51°53' E 004°17'0 0.0
2015-Feb-20 01:29N 51°53' E 004°17'0 0.0
2015-Feb-20 00:32N 51°53' E 004°17'0 0.0
2015-Feb-19 23:26N 51°53' E 004°17'0 0.0
2015-Feb-19 22:32N 51°53' E 004°17'0 0.0
2015-Feb-19 21:26N 51°53' E 004°17'0 0.0
2015-Feb-19 20:29N 51°53' E 004°17'0 0.0
2015-Feb-19 19:14N 51°53' E 004°17'0 0.0
2015-Feb-19 18:32N 51°53' E 004°17'0 0.0
2015-Feb-19 17:32N 51°53' E 004°17'0 0.0
2015-Feb-19 16:26N 51°53' E 004°17'0 0.0
2015-Feb-19 15:32N 51°53' E 004°17'0 0.0
2015-Feb-19 14:14N 51°53' E 004°17'0 0.0
2015-Feb-19 13:32N 51°53' E 004°17'0 0.0
2015-Feb-19 12:32N 51°53' E 004°17'0 0.0
2015-Feb-19 11:23N 51°53' E 004°17'0 0.0
2015-Feb-19 10:14N 51°53' E 004°17'0 0.0
2015-Feb-19 09:26N 51°53' E 004°17'0 0.0
2015-Feb-19 08:32N 51°53' E 004°17'0 0.0
2015-Feb-19 07:29N 51°53' E 004°17'0 0.0
2015-Feb-19 06:29N 51°53' E 004°17'0 0.0
2015-Feb-19 05:32N 51°53' E 004°17'0 0.0
2015-Feb-19 04:32N 51°53' E 004°17'0 0.0
2015-Feb-19 03:32N 51°53' E 004°17'0 0.0
2015-Feb-19 02:26N 51°53' E 004°17'0 0.0
2015-Feb-19 01:32N 51°53' E 004°17'0 0.0
2015-Feb-19 00:32N 51°53' E 004°17'0 0.0
2015-Feb-18 23:32N 51°53' E 004°17'0 0.0
2015-Feb-18 22:30N 51°53' E 004°17'3 2.7
2015-Feb-18 21:33N 51°55' E 004°14'9 9.0
2015-Feb-18 20:33N 51°60' E 004°02'1010.1
2015-Feb-18 19:33N 52°01' E 003°45'8 8.4
2015-Feb-18 18:33N 52°06' E 003°34'6510.4
2015-Feb-18 12:17N 52°43' E 002°07'7 9.9
2015-Feb-18 11:33N 52°47' E 001°57'1110.7
2015-Feb-18 10:33N 52°52' E 001°41'1010.3
2015-Feb-18 09:33N 52°60' E 001°29'1110.5
2015-Feb-18 08:33N 53°09' E 001°21'4012.0
2015-Feb-18 05:13N 53°43' E 000°45'913.0
2015-Feb-18 04:33N 53°50' E 000°36'1212.1
2015-Feb-18 03:33N 54°00' E 000°25'1312.5
2015-Feb-18 02:33N 54°11' E 000°13'1212.3
2015-Feb-18 01:33N 54°21' E 000°03'1211.8
2015-Feb-18 00:33N 54°31' W 000°08'1211.5
2015-Feb-17 23:33N 54°41' W 000°18'1111.0
2015-Feb-17 22:33N 54°51' W 000°28'1110.6
2015-Feb-17 21:33N 54°60' W 000°37'6410.7
2015-Feb-17 15:31N 55°50' W 001°48'1212.6
2015-Feb-17 14:33N 55°57' W 002°06'1312.5
2015-Feb-17 13:33N 56°02' W 002°26'1211.8
2015-Feb-17 12:33N 56°06' W 002°46'1111.3
2015-Feb-17 11:33N 56°03' W 003°06'1110.7
2015-Feb-17 10:33N 56°00' W 003°24'10 6.8
2015-Feb-17 09:08N 56°02' W 003°41'  

Dump ship's entire track history